< < Back
Terminal Aerodrome Forecast


Current Version              Previous Versions:   1  2  3  4  5  6  7  8  9  

Terminal Aerodrome Forecast

903
FTUS42 KJAX 211700
TAFGNV
TAF
KGNV 211720Z 2118/2218 34008KT P6SM FEW040 BKN250
     FM220000 VRB02KT P6SM SCT250
     FM221400 36008KT P6SM FEW250=

Latest METAR

699
SAUS70 KWBC 220158
MTRGNV
METAR KGNV 220153Z 00000KT 10SM CLR 18/17 A2997 RMK AO2 SLP145
T01780167


USA.gov is the U.S. government's official web portal to all federal, state and local government web resources and services.